createdAt,value
2022-09-21T00:01:50.461Z,4.67
2022-09-21T00:06:58.235Z,5.80
2022-09-21T00:12:05.268Z,3.90
2022-09-21T00:17:12.205Z,4.37
2022-09-21T00:22:19.082Z,3.67
2022-09-21T00:27:28.125Z,5.60
2022-09-21T00:32:38.022Z,4.70
2022-09-21T00:37:45.064Z,4.57
2022-09-21T00:42:52.048Z,7.03
2022-09-21T00:47:58.959Z,5.43
2022-09-21T00:53:06.256Z,6.00
2022-09-21T00:58:16.522Z,5.00
2022-09-21T01:03:23.365Z,3.50
2022-09-21T01:08:31.307Z,6.90
2022-09-21T01:13:41.128Z,5.37
2022-09-21T01:18:52.091Z,5.30
2022-09-21T01:24:02.180Z,4.90
2022-09-21T01:29:10.261Z,3.80
2022-09-21T01:34:20.347Z,3.93
2022-09-21T01:39:30.544Z,5.20
2022-09-21T01:44:40.716Z,5.37
2022-09-21T01:49:50.931Z,5.70
2022-09-21T01:55:00.848Z,6.07
2022-09-21T02:00:08.759Z,7.10
2022-09-21T02:05:19.493Z,4.70
2022-09-21T02:10:30.047Z,6.73
2022-09-21T02:15:39.269Z,6.00
2022-09-21T02:20:49.190Z,6.13
2022-09-21T02:25:59.061Z,3.87
2022-09-21T02:31:09.390Z,5.60
2022-09-21T02:36:19.796Z,11.30
2022-09-21T02:41:30.535Z,8.37
2022-09-21T02:46:40.482Z,6.13
2022-09-21T02:51:50.535Z,6.07
2022-09-21T02:56:59.903Z,5.03
2022-09-21T03:02:07.367Z,4.50
2022-09-21T03:07:16.115Z,4.83
2022-09-21T03:12:23.024Z,5.80
2022-09-21T03:17:30.296Z,7.00
2022-09-21T03:22:37.486Z,4.70
2022-09-21T03:27:45.480Z,4.77
2022-09-21T03:32:54.253Z,6.47
2022-09-21T03:38:01.733Z,5.00
2022-09-21T03:43:08.570Z,3.53
2022-09-21T03:48:15.698Z,5.47
2022-09-21T03:53:22.715Z,3.97
2022-09-21T03:58:29.550Z,4.10
2022-09-21T04:03:36.592Z,4.17
2022-09-21T04:08:43.854Z,6.50
2022-09-21T04:13:54.568Z,4.73
2022-09-21T04:19:01.548Z,4.97
2022-09-21T04:24:08.440Z,6.37
2022-09-21T04:29:16.705Z,4.07
2022-09-21T04:34:23.798Z,4.83
2022-09-21T04:39:30.726Z,4.50
2022-09-21T04:44:37.672Z,6.13
2022-09-21T04:49:44.712Z,7.40
2022-09-21T04:54:51.747Z,4.20
2022-09-21T04:59:59.052Z,6.00
2022-09-21T05:05:06.398Z,6.70
2022-09-21T05:10:14.377Z,4.70
2022-09-21T05:15:22.714Z,4.97
2022-09-21T05:20:29.565Z,7.63
2022-09-21T05:25:36.463Z,6.73
2022-09-21T05:31:07.199Z,6.33
2022-09-21T05:35:55.908Z,5.73
2022-09-21T05:41:04.270Z,5.70
2022-09-21T05:46:14.096Z,8.03
2022-09-21T05:51:24.046Z,10.13
2022-09-21T05:56:34.118Z,7.50
2022-09-21T06:01:42.386Z,7.47
2022-09-21T06:06:50.121Z,6.20
2022-09-21T06:11:57.300Z,8.13
2022-09-21T06:17:04.929Z,6.40
2022-09-21T06:22:12.029Z,7.63
2022-09-21T06:27:18.907Z,7.03
2022-09-21T06:32:26.492Z,7.67
2022-09-21T06:37:34.532Z,8.03
2022-09-21T06:42:41.641Z,10.87
2022-09-21T06:47:49.255Z,8.77
2022-09-21T06:52:56.530Z,9.30
2022-09-21T06:58:05.630Z,7.13
2022-09-21T07:03:13.746Z,8.53
2022-09-21T07:13:30.020Z,8.93
2022-09-21T07:18:43.658Z,8.40
2022-09-21T07:23:48.237Z,9.33
2022-09-21T07:28:55.566Z,9.33
2022-09-21T07:34:02.823Z,8.47
2022-09-21T07:39:11.617Z,9.87
2022-09-21T07:44:20.381Z,9.77
2022-09-21T07:49:28.715Z,6.93
2022-09-21T07:54:37.526Z,6.80
2022-09-21T07:59:45.363Z,8.37
2022-09-21T08:04:54.176Z,6.37
2022-09-21T08:10:01.936Z,5.93
2022-09-21T08:15:30.623Z,7.80
2022-09-21T08:20:20.608Z,7.37
2022-09-21T08:25:27.803Z,14.10
2022-09-21T08:30:35.344Z,6.20
2022-09-21T08:35:42.399Z,9.37
2022-09-21T08:40:50.693Z,5.23
2022-09-21T08:45:59.732Z,7.77
2022-09-21T08:51:09.569Z,5.57
2022-09-21T08:56:18.282Z,9.00
2022-09-21T09:01:28.656Z,6.90
2022-09-21T09:06:38.786Z,6.83
2022-09-21T09:11:49.757Z,4.23
2022-09-21T09:17:00.091Z,4.33
2022-09-21T09:22:10.069Z,5.73
2022-09-21T09:27:20.161Z,5.30
2022-09-21T09:32:30.168Z,4.37
2022-09-21T09:37:39.937Z,6.40
2022-09-21T09:42:50.744Z,5.63
2022-09-21T09:47:59.542Z,7.83
2022-09-21T09:53:10.249Z,3.80
2022-09-21T09:58:20.390Z,4.03
2022-09-21T10:03:28.861Z,5.70
2022-09-21T10:08:39.591Z,3.90
2022-09-21T10:13:50.150Z,5.63
2022-09-21T10:19:01.441Z,4.33
2022-09-21T10:24:11.611Z,5.10
2022-09-21T10:29:22.078Z,3.40
2022-09-21T10:34:32.230Z,4.17
2022-09-21T10:39:42.329Z,5.37
2022-09-21T10:44:52.490Z,4.13
2022-09-21T10:50:02.281Z,3.07
2022-09-21T10:55:12.483Z,4.13
2022-09-21T11:00:22.814Z,2.27
2022-09-21T11:05:33.541Z,3.03
2022-09-21T11:10:43.361Z,3.43
2022-09-21T11:15:51.546Z,3.10
2022-09-21T11:21:01.872Z,2.40
2022-09-21T11:26:12.098Z,2.17
2022-09-21T11:31:20.674Z,2.10
2022-09-21T11:36:30.058Z,2.67
2022-09-21T11:41:40.049Z,3.93
2022-09-21T11:46:51.825Z,3.77
2022-09-21T11:52:01.998Z,4.03
2022-09-21T11:57:13.669Z,3.70
2022-09-21T12:02:24.006Z,2.67
2022-09-21T12:07:33.032Z,2.83
2022-09-21T12:12:41.229Z,2.20
2022-09-21T12:17:50.434Z,3.33
2022-09-21T12:23:00.263Z,2.43
2022-09-21T12:28:10.187Z,3.77
2022-09-21T12:33:20.069Z,2.77
2022-09-21T12:38:28.222Z,2.57
2022-09-21T12:43:38.328Z,2.83
2022-09-21T12:48:46.059Z,4.20
2022-09-21T12:53:57.035Z,3.47
2022-09-21T12:59:05.510Z,1.70
2022-09-21T13:04:16.693Z,3.93
2022-09-21T13:09:28.102Z,2.10
2022-09-21T13:14:38.556Z,2.33
2022-09-21T13:19:45.988Z,2.17
2022-09-21T13:24:57.929Z,1.70
2022-09-21T13:30:07.900Z,3.17
2022-09-21T13:35:18.450Z,4.17
2022-09-21T13:40:25.794Z,2.43
2022-09-21T13:45:35.753Z,2.77
2022-09-21T13:50:45.065Z,3.43
2022-09-21T13:56:01.163Z,2.83
2022-09-21T14:01:24.074Z,1.60
2022-09-21T14:06:23.561Z,2.93
2022-09-21T14:11:32.817Z,2.30
2022-09-21T14:16:43.166Z,2.00
2022-09-21T14:21:53.526Z,2.00
2022-09-21T14:27:03.926Z,5.20
2022-09-21T14:32:14.933Z,2.73
2022-09-21T14:37:27.395Z,2.70
2022-09-21T14:42:35.170Z,5.63
2022-09-21T14:47:45.089Z,4.47
2022-09-21T14:52:54.975Z,2.77
2022-09-21T14:58:04.995Z,3.80
2022-09-21T15:03:16.526Z,4.30
2022-09-21T15:08:28.103Z,3.77
2022-09-21T15:13:37.571Z,2.27
2022-09-21T15:18:47.378Z,2.00
2022-09-21T15:23:55.682Z,2.20
2022-09-21T15:29:10.239Z,3.07
2022-09-21T15:34:17.628Z,3.20
2022-09-21T15:39:28.053Z,4.40
2022-09-21T15:44:37.535Z,3.23
2022-09-21T15:49:46.195Z,2.47
2022-09-21T15:54:57.060Z,5.27
2022-09-21T16:00:08.397Z,2.70
2022-09-21T16:05:16.704Z,5.23
2022-09-21T16:10:28.339Z,3.87
2022-09-21T16:15:35.938Z,5.27
2022-09-21T16:20:48.169Z,3.93
2022-09-21T16:26:00.987Z,4.43
2022-09-21T16:31:12.429Z,4.57
2022-09-21T16:36:22.196Z,3.67
2022-09-21T16:41:32.761Z,4.00
2022-09-21T16:46:41.540Z,2.47
2022-09-21T16:51:50.038Z,4.23
2022-09-21T16:56:59.098Z,2.57
2022-09-21T17:02:06.428Z,4.37
2022-09-21T17:07:15.967Z,2.67
2022-09-21T17:12:24.386Z,3.33
2022-09-21T17:17:33.356Z,3.20
2022-09-21T17:22:40.577Z,3.93
2022-09-21T17:27:47.513Z,3.50
2022-09-21T17:32:55.504Z,3.80
2022-09-21T17:38:02.965Z,6.27
2022-09-21T17:43:12.937Z,5.77
2022-09-21T17:48:22.726Z,3.60
2022-09-21T17:53:32.562Z,3.63
2022-09-21T17:58:43.001Z,4.57
2022-09-21T18:03:50.512Z,5.80
2022-09-21T18:08:58.326Z,4.80
2022-09-21T18:14:05.873Z,5.23
2022-09-21T18:19:14.401Z,5.07
2022-09-21T18:24:28.707Z,4.07
2022-09-21T18:29:39.773Z,4.17
2022-09-21T18:34:46.234Z,3.77
2022-09-21T18:39:56.636Z,2.57
2022-09-21T18:45:06.750Z,3.17
2022-09-21T18:50:16.829Z,5.00
2022-09-21T18:55:27.834Z,5.53
2022-09-21T19:00:35.913Z,6.27
2022-09-21T19:05:46.270Z,2.43
2022-09-21T19:10:56.154Z,4.23
2022-09-21T19:16:06.284Z,5.80
2022-09-21T19:21:15.811Z,3.83
2022-09-21T19:26:26.163Z,4.27
2022-09-21T19:31:34.821Z,4.33
2022-09-21T19:36:43.000Z,4.40
2022-09-21T19:41:54.277Z,3.00
2022-09-21T19:47:01.101Z,4.63
2022-09-21T19:52:09.648Z,7.77
2022-09-21T19:57:21.403Z,3.80
2022-09-21T20:02:32.858Z,4.50
2022-09-21T20:07:42.737Z,6.77
2022-09-21T20:12:52.709Z,5.77
2022-09-21T20:18:04.591Z,3.90
2022-09-21T20:23:13.672Z,4.60
2022-09-21T20:28:21.409Z,4.20
2022-09-21T20:33:31.713Z,2.87
2022-09-21T20:38:39.035Z,4.23
2022-09-21T20:43:46.420Z,5.73
2022-09-21T20:48:55.219Z,5.70
2022-09-21T20:54:03.684Z,2.90
2022-09-21T20:59:10.981Z,3.63
2022-09-21T21:04:18.858Z,5.27
2022-09-21T21:09:25.867Z,4.63
2022-09-21T21:14:32.801Z,3.07
2022-09-21T21:19:39.998Z,8.17
2022-09-21T21:24:48.571Z,4.50
2022-09-21T21:29:56.825Z,2.87
2022-09-21T21:35:04.619Z,3.47
2022-09-21T21:40:12.233Z,4.33
2022-09-21T21:45:21.043Z,3.17
2022-09-21T21:50:28.467Z,5.00
2022-09-21T21:55:35.400Z,3.33
2022-09-21T22:00:42.660Z,3.97
2022-09-21T22:05:51.116Z,3.00
2022-09-21T22:10:58.424Z,3.27
2022-09-21T22:16:08.568Z,3.47
2022-09-21T22:21:20.276Z,3.90
2022-09-21T22:26:29.544Z,3.37
2022-09-21T22:31:39.375Z,2.83
2022-09-21T22:36:46.980Z,3.03
2022-09-21T22:41:54.096Z,5.57
2022-09-21T22:47:01.488Z,4.40
2022-09-21T22:52:08.544Z,3.40
2022-09-21T22:57:15.595Z,4.70
2022-09-21T23:02:22.666Z,3.40
2022-09-21T23:07:29.793Z,4.07
2022-09-21T23:12:37.551Z,4.13
2022-09-21T23:17:44.955Z,3.07
2022-09-21T23:22:52.062Z,4.53
2022-09-21T23:28:00.555Z,5.40
2022-09-21T23:33:07.659Z,6.83
2022-09-21T23:38:14.650Z,2.60
2022-09-21T23:43:21.739Z,4.57
2022-09-21T23:48:29.375Z,4.53
2022-09-21T23:53:37.132Z,3.70
2022-09-21T23:58:44.415Z,2.67
